Aérodrome :
LOGIN :

S'inscrire | Disclaimer

   EN    FR    IT 

 










Légende :    VFR   VFR Marginal   IFR   IFR Intensif   IFR Très Intensif
Visi : 
Plafond : 
>= 8 km
>= 3000ft
5 à 8 km
1000 à 3000 ft
1500m à 5 km
500 à 1000 ft
800 à 1500m
200 à 500 ft
< 800m
< 200 ft
Symboles :   Orages  Brouillard  Fortes neiges  Fortes précipitations  Vent > 20 kt
SIGMETs :   Divers  Orages  Givrage  Turbulence  Onde Orograph.  Cendres Volcan.






- Altitude de l'aérodrome : 290 ft
- Code IATA : ACI


EGJA - Alderney

DERNIER METAR :
  • 050820Z 18013KT 9999 FEW006 17/14 Q1006

METARs EXPIRÉS :
  • 050750Z 18016KT 9999 FEW006 SCT044 16/14 Q1007
  • 050720Z 18012KT 9999 FEW006 SCT044 16/14 Q1007
  • 050650Z 17012KT 9999 FEW006 16/14 Q1007
  • 050620Z 18009KT 9999 VCSH FEW005 SCT006 BKN040 16/15 Q1008
  • 050550Z 19013KT 9999 FEW005 SCT007 BKN039 16/15 Q1008

TAF TAF EGJA
Valide du 05 à 09h jusqu'au 05 à 18h UTC


050803Z 0509/0518 17018KT 9999 FEW005 BKN040
PROB40
TEMPO 0509/0518 7000 SHRA BKN004
TEMPO 0510/0514 18012G30KT
PROB30
TEMPO 0512/0518 3000 +SHRA BKN010TCU
BECMG 0514/0516 24015G25KT



MET'MAP, la Météo Aéronautique d'un coup d'oeil ! - Copyright ORBIFLY Décembre 2007 - Disclaimer

ORBIFLY MET'MAP TEAM :

Programmation & Développement : Alexandra Zaïnal
Sur une idée originale de : Baudouin d'Aumeries
Assistance à la programmation : Marc-Olivier Méhu
Soutien technique & logistique : Manuel Goepfert

Contact : metmap@orbifly.com




SOURCES & CREDITS :

   NOAA